Time;durP1;ratioP1;P1;durP2;ratioP2;P2;SDS_P1;SDS_P2;PMS_P1;PMS_P2;Temp;Humidity;BMP_temperature;BMP_pressure;BME280_temperature;BME280_humidity;BME280_pressure;Samples;Min_cycle;Max_cycle;Signal;HPM_P1;HPM_P2
2022/10/13 00:01:20;;;;;;;13.70;6.82;;;14.80;99.90;;;;;;5033532;28;20266;-85
2022/10/13 00:03:47;;;;;;;9.43;6.68;;;14.70;99.90;;;;;;5032148;28;20178;-85
2022/10/13 00:06:15;;;;;;;10.73;5.95;;;14.70;99.90;;;;;;5031831;28;20282;-85
2022/10/13 00:08:41;;;;;;;10.80;5.90;;;14.70;99.90;;;;;;5033324;28;20168;-86
2022/10/13 00:11:15;;;;;;;7.15;5.55;;;14.70;99.90;;;;;;5032089;28;20653;-84
2022/10/13 00:13:42;;;;;;;12.82;6.30;;;14.80;99.90;;;;;;5032529;28;20168;-83
2022/10/13 00:16:09;;;;;;;7.88;6.05;;;14.90;99.90;;;;;;5032934;28;20608;-85
2022/10/13 00:18:35;;;;;;;9.80;6.13;;;14.90;99.90;;;;;;5031929;28;20172;-86
2022/10/13 00:21:07;;;;;;;8.45;6.00;;;14.90;99.90;;;;;;5033353;28;20175;-86
2022/10/13 00:23:33;;;;;;;12.05;5.80;;;14.80;99.90;;;;;;5033631;28;20220;-84
2022/10/13 00:26:03;;;;;;;11.73;6.32;;;15.00;99.90;;;;;;5033125;28;20179;-84
2022/10/13 00:28:29;;;;;;;12.70;6.38;;;14.90;99.90;;;;;;5033031;28;20166;-85
2022/10/13 00:30:55;;;;;;;13.07;6.72;;;14.70;99.90;;;;;;5033045;28;20226;-86
2022/10/13 00:33:20;;;;;;;8.15;5.63;;;14.70;99.90;;;;;;5031768;28;20175;-84
2022/10/13 00:35:47;;;;;;;9.38;6.57;;;14.70;99.90;;;;;;5031890;28;20291;-86
2022/10/13 00:38:15;;;;;;;7.32;5.32;;;14.80;99.90;;;;;;5031576;28;20525;-85
2022/10/13 00:40:54;;;;;;;10.55;5.68;;;14.90;99.90;;;;;;5031659;28;20176;-84
2022/10/13 00:43:23;;;;;;;10.55;5.88;;;14.80;99.90;;;;;;5033017;28;20191;-85
2022/10/13 00:45:49;;;;;;;13.73;6.40;;;14.90;99.90;;;;;;5031409;28;20234;-84
2022/10/13 00:48:24;;;;;;;10.23;6.03;;;15.00;99.90;;;;;;5032724;28;20676;-84
2022/10/13 00:50:51;;;;;;;9.07;5.95;;;15.10;99.90;;;;;;5032668;28;20164;-85
2022/10/13 00:53:20;;;;;;;8.55;7.07;;;15.00;99.90;;;;;;5032615;28;20275;-85
2022/10/13 00:55:47;;;;;;;11.73;6.85;;;15.00;99.90;;;;;;5032491;28;20195;-84
2022/10/13 00:58:15;;;;;;;11.55;5.70;;;15.00;99.90;;;;;;5031106;28;20617;-83
2022/10/13 01:00:47;;;;;;;10.18;6.38;;;14.80;99.90;;;;;;5031318;28;20176;-84
2022/10/13 01:03:13;;;;;;;6.82;6.15;;;14.80;99.90;;;;;;5032541;28;20257;-84
2022/10/13 01:05:40;;;;;;;13.77;6.43;;;14.90;99.90;;;;;;5032743;28;20658;-84
2022/10/13 01:08:06;;;;;;;9.88;6.50;;;15.00;99.90;;;;;;5031389;28;20267;-81
2022/10/13 01:10:54;;;;;;;23.48;7.43;;;14.90;99.90;;;;;;5031524;28;20282;-84
2022/10/13 01:13:48;;;;;;;8.75;6.03;;;14.90;99.90;;;;;;5032526;28;20195;-83
2022/10/13 01:16:30;;;;;;;14.48;6.05;;;15.10;99.90;;;;;;5032245;28;20239;-83
2022/10/13 01:19:34;;;;;;;6.85;6.00;;;14.90;99.90;;;;;;5031704;28;20171;-83
2022/10/13 01:22:11;;;;;;;8.57;6.03;;;14.90;99.90;;;;;;5031186;28;20176;-85
2022/10/13 01:24:43;;;;;;;11.88;7.53;;;14.90;99.90;;;;;;5032491;28;20194;-84
2022/10/13 01:27:36;;;;;;;11.02;6.88;;;15.00;99.90;;;;;;5032013;28;20168;-84
2022/10/13 01:30:16;;;;;;;7.38;5.75;;;14.90;99.90;;;;;;5032258;28;20191;-84
2022/10/13 01:33:10;;;;;;;9.40;7.03;;;14.70;99.90;;;;;;5031152;28;20199;-85
2022/10/13 01:35:45;;;;;;;11.98;7.15;;;14.70;99.90;;;;;;5030561;28;20223;-84
2022/10/13 01:38:21;;;;;;;15.73;7.10;;;14.60;99.90;;;;;;5032351;28;20197;-85
2022/10/13 01:41:00;;;;;;;8.60;7.15;;;14.70;99.90;;;;;;5032332;28;20283;-85
2022/10/13 01:43:37;;;;;;;16.30;7.20;;;14.80;99.90;;;;;;5032941;28;20621;-82
2022/10/13 01:46:09;;;;;;;16.42;6.90;;;14.90;99.90;;;;;;5032398;28;20282;-82
2022/10/13 01:48:38;;;;;;;12.25;6.60;;;14.80;99.90;;;;;;5033541;28;20180;-84
2022/10/13 01:51:08;;;;;;;13.80;8.20;;;14.90;99.90;;;;;;5034592;28;20168;-84
2022/10/13 01:53:34;;;;;;;13.15;7.45;;;14.80;99.90;;;;;;5034316;28;20172;-84
2022/10/13 01:56:00;;;;;;;14.57;7.32;;;14.80;99.90;;;;;;5034154;28;20196;-85
2022/10/13 01:58:30;;;;;;;11.60;7.60;;;14.80;99.90;;;;;;5033489;28;20176;-83
2022/10/13 02:01:02;;;;;;;9.68;7.72;;;14.60;99.90;;;;;;5035628;28;20618;-84
2022/10/13 02:03:50;;;;;;;13.07;9.18;;;14.60;99.90;;;;;;5039193;28;20164;-83
2022/10/13 02:06:37;;;;;;;15.63;8.52;;;14.60;99.90;;;;;;5010027;28;20291;-84
2022/10/13 02:09:25;;;;;;;16.13;7.75;;;14.50;99.90;;;;;;5036780;28;20171;-85
2022/10/13 02:11:58;;;;;;;11.90;8.13;;;14.60;99.90;;;;;;5038869;28;20168;-85
2022/10/13 02:14:31;;;;;;;17.73;8.70;;;14.60;99.90;;;;;;5039702;28;20176;-82
2022/10/13 02:17:00;;;;;;;10.93;8.10;;;14.60;99.90;;;;;;5037837;28;20208;-83
2022/10/13 02:19:27;;;;;;;18.42;9.30;;;14.80;99.90;;;;;;5038328;28;20160;-83
2022/10/13 02:21:55;;;;;;;11.00;7.88;;;14.70;99.90;;;;;;5037770;28;20203;-82
2022/10/13 02:24:20;;;;;;;9.00;8.00;;;14.70;99.90;;;;;;5037596;28;20186;-85
2022/10/13 02:26:46;;;;;;;15.45;8.73;;;14.70;99.90;;;;;;5037738;28;20180;-83
2022/10/13 02:29:15;;;;;;;15.70;7.75;;;14.60;99.90;;;;;;5036644;28;20683;-84
2022/10/13 02:31:42;;;;;;;9.73;8.73;;;14.60;99.90;;;;;;5036221;28;20190;-84
2022/10/13 02:34:07;;;;;;;14.73;8.45;;;14.60;99.90;;;;;;5034158;28;20179;-84
2022/10/13 02:36:33;;;;;;;14.57;7.82;;;14.60;99.90;;;;;;5034650;28;20211;-85
2022/10/13 02:38:59;;;;;;;12.70;8.75;;;14.70;99.90;;;;;;5033731;28;20164;-84
2022/10/13 02:41:25;;;;;;;15.95;8.95;;;14.70;99.90;;;;;;5035124;28;20218;-84
2022/10/13 02:43:51;;;;;;;14.88;9.13;;;14.90;99.90;;;;;;5034615;28;20175;-83
2022/10/13 02:46:16;;;;;;;10.15;8.88;;;14.90;99.90;;;;;;5033521;28;20321;-83
2022/10/13 02:48:42;;;;;;;12.23;9.88;;;15.00;99.90;;;;;;5033706;28;20179;-83
2022/10/13 02:51:07;;;;;;;17.00;9.43;;;14.90;99.90;;;;;;5034062;28;20164;-84
2022/10/13 02:53:33;;;;;;;12.68;9.02;;;14.80;99.90;;;;;;5034699;28;20174;-83
2022/10/13 02:55:58;;;;;;;13.95;9.70;;;14.80;99.90;;;;;;5033580;28;20211;-85
2022/10/13 02:58:24;;;;;;;13.43;9.85;;;14.80;99.90;;;;;;5033402;28;20164;-83
2022/10/13 03:00:49;;;;;;;13.07;10.05;;;14.70;99.90;;;;;;5034442;28;20167;-83
2022/10/13 03:03:15;;;;;;;11.70;9.05;;;14.70;99.90;;;;;;5034459;28;20168;-84
2022/10/13 03:05:41;;;;;;;13.43;8.80;;;14.60;99.90;;;;;;5034362;28;20744;-85
2022/10/13 03:08:06;;;;;;;12.30;9.35;;;14.70;99.90;;;;;;5033208;28;20175;-83
2022/10/13 03:10:32;;;;;;;18.38;9.43;;;14.80;99.90;;;;;;5034540;28;20164;-84
2022/10/13 03:12:58;;;;;;;14.82;9.98;;;14.60;99.90;;;;;;5035913;28;20160;-86
2022/10/13 03:15:24;;;;;;;17.92;10.13;;;14.60;99.90;;;;;;5034392;28;20183;-84
2022/10/13 03:17:49;;;;;;;19.63;10.55;;;14.50;99.90;;;;;;5034568;28;20233;-85
2022/10/13 03:20:16;;;;;;;16.80;9.93;;;14.60;99.90;;;;;;5034282;28;20172;-84
2022/10/13 03:22:41;;;;;;;23.70;10.27;;;14.60;99.90;;;;;;5033078;28;20168;-85
2022/10/13 03:25:07;;;;;;;19.35;10.68;;;14.40;99.90;;;;;;5032844;28;20199;-85
2022/10/13 03:27:33;;;;;;;13.75;11.18;;;14.50;99.90;;;;;;5033019;28;20271;-85
2022/10/13 03:29:58;;;;;;;19.15;10.98;;;14.40;99.90;;;;;;5034226;28;20172;-85
2022/10/13 03:32:24;;;;;;;17.00;10.68;;;14.40;99.90;;;;;;5034308;28;20205;-85
2022/10/13 03:34:51;;;;;;;16.02;10.48;;;14.20;99.90;;;;;;5034331;28;20195;-84
2022/10/13 03:37:16;;;;;;;27.80;10.70;;;14.10;99.90;;;;;;5033981;28;20266;-85
2022/10/13 03:39:42;;;;;;;21.17;10.68;;;14.20;99.90;;;;;;5034077;28;20221;-85
2022/10/13 03:42:08;;;;;;;18.63;11.77;;;14.30;99.90;;;;;;5034089;28;20529;-84
2022/10/13 03:44:34;;;;;;;15.73;10.35;;;14.30;99.90;;;;;;5033967;28;20168;-84
2022/10/13 03:46:59;;;;;;;14.95;11.20;;;14.20;99.90;;;;;;5032695;28;20188;-85
2022/10/13 03:49:25;;;;;;;14.38;11.20;;;14.20;99.90;;;;;;5033676;28;20192;-84
2022/10/13 03:51:51;;;;;;;19.83;11.10;;;14.40;99.90;;;;;;5033821;28;20175;-84
2022/10/13 03:54:17;;;;;;;17.48;11.70;;;14.40;99.90;;;;;;5033573;28;20171;-84
2022/10/13 03:56:43;;;;;;;17.35;10.18;;;14.50;99.90;;;;;;5033407;28;20222;-84
2022/10/13 03:59:11;;;;;;;27.70;10.60;;;14.50;99.90;;;;;;5033672;28;20223;-85
2022/10/13 04:01:37;;;;;;;16.17;11.95;;;14.60;99.90;;;;;;5033157;28;20168;-85
2022/10/13 04:04:03;;;;;;;15.48;10.98;;;14.50;99.90;;;;;;5034532;28;20192;-85
2022/10/13 04:06:30;;;;;;;18.83;10.63;;;14.50;99.90;;;;;;5033465;28;20234;-83
2022/10/13 04:08:56;;;;;;;13.88;10.15;;;14.50;99.90;;;;;;5033515;28;20221;-86
2022/10/13 04:11:22;;;;;;;19.48;11.48;;;14.50;99.90;;;;;;5033749;28;20524;-86
2022/10/13 04:13:48;;;;;;;15.18;9.73;;;14.40;99.90;;;;;;5033229;28;20526;-87
2022/10/13 04:16:17;;;;;;;23.05;10.68;;;14.40;99.90;;;;;;5033463;28;20215;-85
2022/10/13 04:18:43;;;;;;;16.35;9.98;;;14.50;99.90;;;;;;5032493;28;20190;-85
2022/10/13 04:21:15;;;;;;;18.13;10.30;;;14.50;99.90;;;;;;5033352;28;20172;-86
2022/10/13 04:23:40;;;;;;;11.00;9.80;;;14.70;99.90;;;;;;5032567;28;20626;-86
2022/10/13 04:26:06;;;;;;;13.93;9.57;;;14.80;99.90;;;;;;5033243;28;20203;-85
2022/10/13 04:28:34;;;;;;;23.25;10.70;;;14.70;99.90;;;;;;5032068;28;20186;-84
2022/10/13 04:31:01;;;;;;;21.88;11.05;;;14.80;99.90;;;;;;5032011;28;20252;-86
2022/10/13 04:33:27;;;;;;;26.00;11.05;;;14.60;99.90;;;;;;5032839;28;20164;-85
2022/10/13 04:35:52;;;;;;;15.05;10.10;;;14.60;99.90;;;;;;5031777;28;20225;-84
2022/10/13 04:38:18;;;;;;;18.98;10.80;;;14.70;99.90;;;;;;5031955;28;20194;-86
2022/10/13 04:40:43;;;;;;;15.20;10.05;;;14.60;99.90;;;;;;5032148;28;20168;-84
2022/10/13 04:43:09;;;;;;;14.63;10.55;;;14.70;99.90;;;;;;5033095;28;20168;-86
2022/10/13 04:45:35;;;;;;;17.45;11.63;;;14.60;99.90;;;;;;5031923;28;20202;-85
2022/10/13 04:48:01;;;;;;;18.65;11.10;;;14.60;99.90;;;;;;5032277;28;20172;-85
2022/10/13 04:50:26;;;;;;;11.85;9.27;;;14.60;99.90;;;;;;5031708;28;20262;-85
2022/10/13 04:52:52;;;;;;;19.77;10.45;;;14.70;99.90;;;;;;5032793;28;20550;-86
2022/10/13 04:55:17;;;;;;;17.77;10.38;;;14.60;99.90;;;;;;5031489;28;20199;-86
2022/10/13 04:57:43;;;;;;;28.40;10.88;;;14.60;99.90;;;;;;5033285;28;20175;-84
2022/10/13 05:00:09;;;;;;;14.95;9.98;;;14.70;99.90;;;;;;5032792;28;20175;-85
2022/10/13 05:02:35;;;;;;;23.08;10.23;;;14.80;99.90;;;;;;5032876;28;20168;-86
2022/10/13 05:05:02;;;;;;;15.57;10.07;;;14.80;99.90;;;;;;5032625;28;20254;-85
2022/10/13 05:07:29;;;;;;;13.52;9.25;;;14.70;99.90;;;;;;5032556;28;20167;-82
2022/10/13 05:09:54;;;;;;;19.42;9.52;;;14.70;99.90;;;;;;5032445;28;20168;-81
2022/10/13 05:12:20;;;;;;;12.40;8.80;;;14.70;99.90;;;;;;5032325;28;20168;-81
2022/10/13 05:14:46;;;;;;;13.80;9.40;;;14.70;99.90;;;;;;5032530;28;20247;-82
2022/10/13 05:17:11;;;;;;;16.80;9.13;;;14.80;99.90;;;;;;5031848;28;20617;-81
2022/10/13 05:19:37;;;;;;;18.80;10.63;;;14.80;99.90;;;;;;5031928;28;20168;-83
2022/10/13 05:22:03;;;;;;;19.17;12.00;;;14.80;99.90;;;;;;5031076;28;20180;-85
2022/10/13 05:24:37;;;;;;;19.45;9.52;;;14.70;99.90;;;;;;5033053;28;20172;-85
2022/10/13 05:27:09;;;;;;;16.77;9.07;;;14.50;99.90;;;;;;5031556;28;20195;-86
2022/10/13 05:29:35;;;;;;;13.95;8.93;;;14.50;99.90;;;;;;5031436;28;20168;-85
2022/10/13 05:32:01;;;;;;;18.45;9.73;;;14.60;99.90;;;;;;5032559;28;20225;-83
2022/10/13 05:34:27;;;;;;;13.55;8.90;;;14.70;99.90;;;;;;5031339;28;20171;-85
2022/10/13 05:36:52;;;;;;;13.30;8.50;;;14.80;99.90;;;;;;5036233;28;20211;-86
2022/10/13 05:39:18;;;;;;;12.25;9.00;;;15.00;99.90;;;;;;5035090;28;20254;-85
2022/10/13 05:41:43;;;;;;;14.15;9.05;;;14.70;99.90;;;;;;5037120;28;20179;-82
2022/10/13 05:44:09;;;;;;;14.10;9.02;;;14.60;99.90;;;;;;5036289;28;20566;-83
2022/10/13 05:46:35;;;;;;;19.80;10.68;;;14.60;99.90;;;;;;5042007;28;20256;-87
2022/10/13 05:49:01;;;;;;;14.38;9.30;;;14.70;99.90;;;;;;5054492;28;20213;-85
2022/10/13 05:51:34;;;;;;;15.05;9.40;;;14.50;99.90;;;;;;5056823;28;20179;-85
2022/10/13 05:54:08;;;;;;;14.35;9.27;;;14.50;99.90;;;;;;5055374;28;20244;-83
2022/10/13 05:56:42;;;;;;;19.27;9.48;;;14.60;99.90;;;;;;5056404;28;20213;-84
2022/10/13 05:59:11;;;;;;;17.90;9.88;;;14.30;99.90;;;;;;5056026;28;20498;-84
2022/10/13 06:01:39;;;;;;;26.80;10.50;;;14.20;99.90;;;;;;5056382;28;20258;-83
2022/10/13 06:04:09;;;;;;;20.05;9.82;;;14.30;99.90;;;;;;5056010;28;20221;-83
2022/10/13 06:06:35;;;;;;;19.88;9.57;;;14.30;99.90;;;;;;5055142;28;20233;-83
2022/10/13 06:09:01;;;;;;;22.38;9.68;;;14.40;99.90;;;;;;5054633;28;20187;-84
2022/10/13 06:11:26;;;;;;;17.58;9.48;;;14.50;99.90;;;;;;5054675;28;20601;-85
2022/10/13 06:13:52;;;;;;;10.85;9.07;;;14.50;99.90;;;;;;5054888;28;20167;-85
2022/10/13 06:16:17;;;;;;;18.60;9.38;;;14.40;99.90;;;;;;5054207;28;20207;-85
2022/10/13 06:18:43;;;;;;;16.90;10.25;;;14.40;99.90;;;;;;5055232;28;20629;-86
2022/10/13 06:21:09;;;;;;;16.83;9.75;;;14.40;99.90;;;;;;5054415;28;20175;-84
2022/10/13 06:23:34;;;;;;;17.42;9.20;;;14.50;99.90;;;;;;5052644;28;20527;-83
2022/10/13 06:26:00;;;;;;;27.90;8.88;;;14.60;99.90;;;;;;5053125;28;20176;-86
2022/10/13 06:28:26;;;;;;;18.33;10.00;;;14.70;99.90;;;;;;5052327;28;20175;-82
2022/10/13 06:30:55;;;;;;;16.73;9.40;;;14.50;99.90;;;;;;5070660;28;20585;-84
2022/10/13 06:33:22;;;;;;;14.20;8.73;;;14.50;99.90;;;;;;5054567;28;20621;-85
2022/10/13 06:35:49;;;;;;;11.85;7.75;;;14.60;99.90;;;;;;5052492;28;20242;-81
2022/10/13 06:38:14;;;;;;;23.65;10.10;;;14.70;99.90;;;;;;5052104;28;20656;-82
2022/10/13 06:40:41;;;;;;;19.92;8.88;;;14.70;99.90;;;;;;5052371;28;20168;-82
2022/10/13 06:43:06;;;;;;;15.80;8.77;;;14.70;99.90;;;;;;5051931;28;20159;-81
2022/10/13 06:45:32;;;;;;;15.38;9.00;;;14.80;99.90;;;;;;5052094;28;20199;-80
2022/10/13 06:47:57;;;;;;;22.75;9.65;;;14.90;99.90;;;;;;5051486;28;20578;-80
2022/10/13 06:50:23;;;;;;;17.75;9.45;;;14.80;99.90;;;;;;5053149;28;20292;-81
2022/10/13 06:52:49;;;;;;;17.30;9.68;;;14.90;99.90;;;;;;5052338;28;20174;-81
2022/10/13 06:55:15;;;;;;;20.45;9.00;;;14.90;99.90;;;;;;5052711;28;20551;-81
2022/10/13 06:57:41;;;;;;;20.40;9.27;;;14.90;99.90;;;;;;5054478;28;20553;-80
2022/10/13 07:00:07;;;;;;;18.52;8.65;;;15.00;99.90;;;;;;5053123;28;20254;-80
2022/10/13 07:02:33;;;;;;;24.85;8.40;;;15.00;99.90;;;;;;5054224;28;20653;-82
2022/10/13 07:04:59;;;;;;;21.60;8.57;;;15.00;99.90;;;;;;5054295;28;20178;-80
2022/10/13 07:07:25;;;;;;;15.80;8.90;;;15.10;99.90;;;;;;5053828;28;20258;-81
2022/10/13 07:09:50;;;;;;;17.20;8.80;;;15.20;99.90;;;;;;5053026;28;20163;-80
2022/10/13 07:12:16;;;;;;;19.13;7.75;;;15.30;99.90;;;;;;5054216;28;20178;-81
2022/10/13 07:14:41;;;;;;;10.77;8.30;;;15.30;99.90;;;;;;5052577;28;20572;-80
2022/10/13 07:17:07;;;;;;;21.08;9.18;;;15.50;99.90;;;;;;5054318;28;20207;-80
2022/10/13 07:19:33;;;;;;;11.98;8.60;;;15.40;99.90;;;;;;5052851;28;20562;-80
2022/10/13 07:21:58;;;;;;;25.48;8.18;;;15.60;99.90;;;;;;5052845;28;20185;-86
2022/10/13 07:24:24;;;;;;;19.00;7.65;;;15.60;99.90;;;;;;5053139;28;20258;-85
2022/10/13 07:26:50;;;;;;;10.65;7.82;;;15.60;99.90;;;;;;5054137;28;20656;-86
2022/10/13 07:29:16;;;;;;;14.05;8.93;;;15.60;99.90;;;;;;5052645;28;20273;-83
2022/10/13 07:31:42;;;;;;;16.13;7.38;;;15.40;99.90;;;;;;5053875;28;20554;-85
2022/10/13 07:34:08;;;;;;;13.13;7.55;;;15.30;99.90;;;;;;5052983;28;20543;-85
2022/10/13 07:36:34;;;;;;;15.00;8.07;;;15.20;99.90;;;;;;5052715;28;20222;-84
2022/10/13 07:39:02;;;;;;;13.43;7.55;;;15.30;99.90;;;;;;5052622;28;20166;-85
2022/10/13 07:41:28;;;;;;;16.85;7.85;;;15.40;99.90;;;;;;5054544;28;20183;-85
2022/10/13 07:43:55;;;;;;;16.48;7.43;;;15.40;99.90;;;;;;5052858;28;20171;-86
2022/10/13 07:46:20;;;;;;;13.38;7.25;;;15.40;99.90;;;;;;5052404;28;20202;-85
2022/10/13 07:48:46;;;;;;;14.25;7.30;;;15.40;99.90;;;;;;5054131;28;20167;-85
2022/10/13 07:51:12;;;;;;;14.88;6.82;;;15.30;99.90;;;;;;5052276;28;20167;-85
2022/10/13 07:53:39;;;;;;;11.90;6.60;;;15.30;99.90;;;;;;5052788;28;20171;-81
2022/10/13 07:56:07;;;;;;;27.58;7.18;;;15.40;99.90;;;;;;5052059;28;20622;-81
2022/10/13 07:58:35;;;;;;;11.45;7.60;;;15.60;99.90;;;;;;5053785;28;20167;-81
2022/10/13 08:01:01;;;;;;;12.65;7.38;;;15.60;99.90;;;;;;5052559;28;20164;-82
2022/10/13 08:03:27;;;;;;;9.23;7.10;;;15.70;99.90;;;;;;5053704;28;20171;-82
2022/10/13 08:05:54;;;;;;;13.43;6.80;;;15.60;99.90;;;;;;5054134;28;20325;-84
2022/10/13 08:08:20;;;;;;;9.82;6.88;;;15.70;99.90;;;;;;5051777;28;20182;-82
2022/10/13 08:10:46;;;;;;;18.10;7.75;;;15.70;99.90;;;;;;5051989;28;20216;-84
2022/10/13 08:13:12;;;;;;;12.25;7.55;;;15.70;99.90;;;;;;5052101;28;20174;-84
2022/10/13 08:15:42;;;;;;;15.02;7.80;;;15.80;99.90;;;;;;5052948;28;20191;-82
2022/10/13 08:18:13;;;;;;;17.95;7.93;;;15.80;99.90;;;;;;5053060;28;20250;-83
2022/10/13 08:20:43;;;;;;;14.80;7.65;;;15.90;99.90;;;;;;5053301;28;20187;-83
2022/10/13 08:23:09;;;;;;;19.98;8.13;;;16.00;99.90;;;;;;5051575;28;20159;-82
2022/10/13 08:25:39;;;;;;;15.32;7.60;;;16.00;99.90;;;;;;5053064;28;20198;-85
2022/10/13 08:30:31;;;;;;;9.30;7.63;;;16.30;99.90;;;;;;5052795;28;20174;-82
2022/10/13 08:32:57;;;;;;;10.73;7.72;;;16.40;99.90;;;;;;5053285;28;20190;-84
2022/10/13 08:35:22;;;;;;;15.63;8.07;;;16.60;99.90;;;;;;5053438;28;20723;-84
2022/10/13 08:37:49;;;;;;;12.23;7.07;;;16.20;99.90;;;;;;5052263;28;20191;-84
2022/10/13 08:40:19;;;;;;;12.80;7.35;;;16.20;99.90;;;;;;5052585;28;20221;-83
2022/10/13 08:42:45;;;;;;;12.20;6.43;;;16.20;99.90;;;;;;5053029;28;20171;-85
2022/10/13 08:45:19;;;;;;;15.48;6.45;;;16.10;99.90;;;;;;5052649;28;20210;-81
2022/10/13 08:47:53;;;;;;;6.50;5.88;;;16.10;99.90;;;;;;5051861;28;20167;-82
2022/10/13 08:50:24;;;;;;;11.00;6.88;;;16.00;99.90;;;;;;5070047;22;20211;-80
2022/10/13 08:52:54;;;;;;;17.90;6.68;;;16.20;99.90;;;;;;5047002;28;20478;-81
2022/10/13 08:55:30;;;;;;;10.48;7.05;;;16.30;99.90;;;;;;5055914;28;20183;-78
2022/10/13 08:57:57;;;;;;;11.55;6.00;;;16.50;99.90;;;;;;5052181;28;20175;-82
2022/10/13 09:00:23;;;;;;;9.32;5.70;;;16.70;99.90;;;;;;5052005;28;20178;-78
2022/10/13 09:02:49;;;;;;;14.80;5.40;;;16.80;99.90;;;;;;5050587;28;20239;-88
2022/10/13 09:05:28;;;;;;;11.35;5.68;;;16.70;99.90;;;;;;5052016;28;20209;-77
2022/10/13 09:07:56;;;;;;;9.88;5.75;;;16.60;99.90;;;;;;5052022;28;20162;-78
2022/10/13 09:10:22;;;;;;;11.00;5.63;;;16.60;99.90;;;;;;5053328;28;20174;-81
2022/10/13 09:12:48;;;;;;;7.25;6.10;;;16.70;99.90;;;;;;5056578;28;20182;-85
2022/10/13 09:15:14;;;;;;;7.40;6.15;;;16.80;99.90;;;;;;5055707;28;20573;-86
2022/10/13 09:17:40;;;;;;;6.32;5.45;;;16.90;99.90;;;;;;5058501;28;20862;-78
2022/10/13 09:20:20;;;;;;;18.80;6.00;;;16.80;99.90;;;;;;5076692;28;20178;-93
2022/10/13 09:23:02;;;;;;;9.52;6.10;;;16.70;99.90;;;;;;5072509;28;20217;-79
2022/10/13 09:25:28;;;;;;;14.50;5.55;;;16.70;99.90;;;;;;5074183;28;20182;-81
2022/10/13 09:27:57;;;;;;;11.82;5.18;;;16.60;99.90;;;;;;5079280;28;20222;-80
2022/10/13 09:30:28;;;;;;;7.68;5.28;;;16.60;99.90;;;;;;5083560;28;20166;-91
2022/10/13 09:33:21;;;;;;;9.38;5.55;;;16.70;99.90;;;;;;5062900;28;20236;-82
2022/10/13 09:36:23;;;;;;;9.73;5.82;;;16.70;99.90;;;;;;5052017;28;20302;-85
2022/10/13 09:39:10;;;;;;;17.08;5.15;;;16.80;99.90;;;;;;5055873;28;20245;-82
2022/10/13 09:41:36;;;;;;;10.98;6.28;;;16.90;99.90;;;;;;5058262;28;20179;-78
2022/10/13 09:44:28;;;;;;;10.52;6.53;;;16.60;99.90;;;;;;5063432;28;20203;-80
2022/10/13 09:46:56;;;;;;;7.20;5.47;;;16.50;99.90;;;;;;5067263;28;20271;-78
2022/10/13 09:49:37;;;;;;;10.57;5.45;;;16.80;99.90;;;;;;5062619;28;20167;-78
2022/10/13 09:52:13;;;;;;;13.05;7.03;;;16.80;99.90;;;;;;5056651;28;20206;-82
2022/10/13 09:54:49;;;;;;;7.43;6.05;;;16.90;99.90;;;;;;5061899;28;20740;-80
2022/10/13 09:57:44;;;;;;;9.25;5.85;;;17.10;99.90;;;;;;5062584;28;20266;-78
2022/10/13 10:00:20;;;;;;;12.10;6.20;;;17.10;99.90;;;;;;5055397;28;20167;-79
2022/10/13 10:03:19;;;;;;;17.80;6.78;;;17.10;99.90;;;;;;5057520;28;20194;-85
2022/10/13 10:05:55;;;;;;;12.55;6.78;;;17.30;99.90;;;;;;5059245;28;20187;-81
2022/10/13 10:08:23;;;;;;;11.07;6.25;;;17.30;99.90;;;;;;5051119;28;20190;-80
2022/10/13 10:10:48;;;;;;;7.95;6.43;;;17.40;99.90;;;;;;5035184;28;20744;-79
2022/10/13 10:13:14;;;;;;;15.57;6.80;;;17.20;99.90;;;;;;5051789;28;20277;-78
2022/10/13 10:15:52;;;;;;;14.43;7.32;;;17.40;99.90;;;;;;5080882;28;20270;-78
2022/10/13 10:18:35;;;;;;;8.68;7.05;;;17.50;99.90;;;;;;5072542;28;20206;-78
2022/10/13 10:21:22;;;;;;;7.30;6.60;;;17.30;99.90;;;;;;5063976;28;20186;-79
2022/10/13 10:24:13;;;;;;;9.38;7.35;;;17.30;99.90;;;;;;5057872;28;20194;-91
2022/10/13 10:26:59;;;;;;;9.60;7.35;;;17.00;99.90;;;;;;5055753;28;20210;-77
2022/10/13 10:29:39;;;;;;;12.80;7.47;;;17.20;99.90;;;;;;5061815;28;20257;-84
2022/10/13 10:32:24;;;;;;;12.02;8.18;;;17.20;99.90;;;;;;5057175;28;20163;-82
2022/10/13 10:34:58;;;;;;;13.70;7.18;;;17.20;99.90;;;;;;5058477;28;20254;-90
2022/10/13 10:37:38;;;;;;;14.48;7.53;;;17.20;99.90;;;;;;5061378;28;20191;-84
2022/10/13 10:40:33;;;;;;;15.20;8.25;;;16.90;99.90;;;;;;5057812;28;20164;-81
2022/10/13 10:43:25;;;;;;;17.42;7.90;;;16.80;99.90;;;;;;5057431;28;20179;-82
2022/10/13 10:45:50;;;;;;;10.90;7.28;;;16.70;99.90;;;;;;5061903;28;20243;-79
2022/10/13 10:48:24;;;;;;;12.23;8.35;;;16.60;99.90;;;;;;5066323;28;20238;-80
2022/10/13 10:50:52;;;;;;;15.70;7.93;;;16.50;99.90;;;;;;5060402;28;20183;-82
2022/10/13 10:53:39;;;;;;;13.40;8.73;;;16.40;99.90;;;;;;5056499;28;20209;-78
2022/10/13 10:56:15;;;;;;;18.67;8.15;;;16.50;99.90;;;;;;5056948;28;20202;-82
2022/10/13 10:59:11;;;;;;;14.10;8.80;;;16.40;99.90;;;;;;5055718;28;20174;-79
2022/10/13 11:02:00;;;;;;;19.38;9.00;;;16.10;99.90;;;;;;5055963;28;20171;-79
2022/10/13 11:04:41;;;;;;;11.57;8.30;;;16.10;99.90;;;;;;5059113;28;20183;-80
2022/10/13 11:07:35;;;;;;;11.05;9.00;;;16.20;99.90;;;;;;5062390;28;20199;-79
2022/10/13 11:10:15;;;;;;;13.50;8.50;;;16.10;99.90;;;;;;5069462;28;20198;-84
2022/10/13 11:12:50;;;;;;;11.80;9.23;;;16.00;99.90;;;;;;5074550;28;20277;-85
2022/10/13 11:15:17;;;;;;;16.73;9.63;;;15.90;99.90;;;;;;5080082;28;20195;-78
2022/10/13 11:17:43;;;;;;;14.88;10.00;;;15.90;99.90;;;;;;5074774;28;20747;-87
2022/10/13 11:20:20;;;;;;;14.10;10.20;;;15.90;99.90;;;;;;5085791;28;20690;-86
2022/10/13 11:23:05;;;;;;;11.15;9.98;;;15.80;99.90;;;;;;5089438;28;20174;-79
2022/10/13 11:25:47;;;;;;;13.57;9.52;;;15.80;99.90;;;;;;5089809;28;20273;-79
2022/10/13 11:28:22;;;;;;;12.80;9.70;;;16.00;99.90;;;;;;5094987;28;20178;-80
2022/10/13 11:30:53;;;;;;;14.60;9.88;;;16.30;99.90;;;;;;5089811;28;20173;-78
2022/10/13 11:33:37;;;;;;;10.95;9.05;;;16.50;99.90;;;;;;5082882;28;20174;-81
2022/10/13 11:36:30;;;;;;;15.57;8.20;;;16.90;99.90;;;;;;5073963;28;20600;-90
2022/10/13 11:39:28;;;;;;;11.88;8.63;;;17.20;99.90;;;;;;5074014;28;20167;-79
2022/10/13 11:42:04;;;;;;;22.52;9.10;;;17.50;99.90;;;;;;5038622;28;20536;-81
2022/10/13 11:44:51;;;;;;;10.77;9.63;;;17.40;99.90;;;;;;5072433;28;20225;-88
2022/10/13 11:47:43;;;;;;;11.43;8.57;;;17.80;99.90;;;;;;5072409;28;20689;-81
2022/10/13 11:50:31;;;;;;;16.58;8.73;;;17.60;99.90;;;;;;5072597;28;20335;-81
2022/10/13 11:53:16;;;;;;;10.30;8.32;;;17.60;99.90;;;;;;5072568;28;20692;-92
2022/10/13 11:55:52;;;;;;;15.20;8.13;;;17.50;99.90;;;;;;5072837;28;20182;-80
2022/10/13 11:58:21;;;;;;;11.77;9.20;;;17.50;99.90;;;;;;5072459;28;20174;-86
2022/10/13 12:01:06;;;;;;;13.40;9.20;;;17.40;99.90;;;;;;5072262;28;20174;-82
2022/10/13 12:03:33;;;;;;;11.10;9.43;;;17.00;99.90;;;;;;5072682;28;20189;-88
2022/10/13 12:06:31;;;;;;;11.45;9.10;;;17.00;99.90;;;;;;5075310;28;20269;-88
2022/10/13 12:08:57;;;;;;;12.38;9.68;;;16.70;99.90;;;;;;5072749;28;20171;-81
2022/10/13 12:11:33;;;;;;;16.52;10.05;;;16.70;99.90;;;;;;5073382;28;20212;-91
2022/10/13 12:14:00;;;;;;;19.60;10.18;;;16.70;99.90;;;;;;5074699;28;20628;-96
2022/10/13 12:16:27;;;;;;;21.48;9.52;;;16.60;99.90;;;;;;5075630;28;20576;-90
2022/10/13 12:18:52;;;;;;;18.00;9.85;;;16.50;99.90;;;;;;5076721;28;20245;-92
2022/10/13 12:21:21;;;;;;;13.65;9.90;;;16.50;99.90;;;;;;5072744;28;20190;-81
2022/10/13 12:23:48;;;;;;;12.60;10.05;;;16.60;99.90;;;;;;5079430;28;20170;-81
2022/10/13 12:26:16;;;;;;;14.13;9.98;;;16.60;99.90;;;;;;5085864;28;20253;-81
2022/10/13 12:28:59;;;;;;;19.40;10.57;;;16.60;99.90;;;;;;5089211;28;20182;-92
2022/10/13 12:31:41;;;;;;;13.48;9.90;;;16.70;99.90;;;;;;5082865;28;20197;-94
2022/10/13 12:34:29;;;;;;;15.02;10.98;;;16.80;99.90;;;;;;5080070;28;20174;-94
2022/10/13 12:37:00;;;;;;;14.82;10.15;;;16.70;99.90;;;;;;5079224;28;20212;-91
2022/10/13 12:39:28;;;;;;;13.43;10.60;;;16.70;99.90;;;;;;5078289;28;20269;-93
2022/10/13 12:41:57;;;;;;;11.98;10.38;;;17.00;99.90;;;;;;5081760;28;20166;-88
2022/10/13 12:44:27;;;;;;;13.43;10.48;;;17.20;99.90;;;;;;5083410;28;20636;-83
2022/10/13 12:46:57;;;;;;;21.80;11.77;;;17.40;99.90;;;;;;5087887;28;20657;-87
2022/10/13 12:49:29;;;;;;;17.58;10.38;;;17.30;99.90;;;;;;5082138;28;20257;-80
2022/10/13 12:52:03;;;;;;;14.55;10.30;;;17.20;99.90;;;;;;5077279;28;20196;-96
2022/10/13 12:54:35;;;;;;;14.48;9.18;;;17.20;99.90;;;;;;5074982;28;20190;-89
2022/10/13 12:57:11;;;;;;;12.13;9.40;;;17.30;99.90;;;;;;5075326;28;20202;-80